You are not logged in, Click here to log in
関西国際空港 KIX / RJBB 日本大阪灣東南部的泉州近海離岸5公里的人工島
ICAO: RJBB Country: 日本大阪灣東南部的泉州近海離岸5公里的人工島
Latitude: 34.4341 Longitude: 135.243
Total Arrivals: 198 Total Departures: 185
Latest Arrival: JL2502 (RJCC-RJBB)Arthur. Kung Latest Departure: IT211 (RJBB-RCTP)CHU. CHUHAO
Scenery:
METAR : RJBB 220900Z 30012KT 9999 FEW015 12/10 Q1019 TEMPO 30024G35KT

関西国際空港 KIX